sensor_id;sensor_type;location;lat;lon;timestamp;temperature;humidity
67054;SHT31;53960;51.826;5.850;2023-09-07T00:00:18;20.58;82.39
67054;SHT31;53960;51.826;5.850;2023-09-07T00:02:43;20.54;82.54
67054;SHT31;53960;51.826;5.850;2023-09-07T00:05:09;20.52;82.70
67054;SHT31;53960;51.826;5.850;2023-09-07T00:07:35;20.51;82.64
67054;SHT31;53960;51.826;5.850;2023-09-07T00:10:02;20.51;82.51
67054;SHT31;53960;51.826;5.850;2023-09-07T00:12:28;20.45;82.77
67054;SHT31;53960;51.826;5.850;2023-09-07T00:14:54;20.40;82.86
67054;SHT31;53960;51.826;5.850;2023-09-07T00:17:20;20.41;82.96
67054;SHT31;53960;51.826;5.850;2023-09-07T00:19:45;20.34;83.15
67054;SHT31;53960;51.826;5.850;2023-09-07T00:22:14;20.31;83.18
67054;SHT31;53960;51.826;5.850;2023-09-07T00:24:39;20.29;83.16
67054;SHT31;53960;51.826;5.850;2023-09-07T00:27:04;20.19;83.45
67054;SHT31;53960;51.826;5.850;2023-09-07T00:29:31;20.21;83.25
67054;SHT31;53960;51.826;5.850;2023-09-07T00:31:56;20.13;83.47
67054;SHT31;53960;51.826;5.850;2023-09-07T00:34:22;20.09;83.67
67054;SHT31;53960;51.826;5.850;2023-09-07T00:36:47;20.08;83.66
67054;SHT31;53960;51.826;5.850;2023-09-07T00:39:12;20.08;83.75
67054;SHT31;53960;51.826;5.850;2023-09-07T00:41:38;20.08;83.81
67054;SHT31;53960;51.826;5.850;2023-09-07T00:44:04;20.01;83.93
67054;SHT31;53960;51.826;5.850;2023-09-07T00:46:29;19.97;83.86
67054;SHT31;53960;51.826;5.850;2023-09-07T00:48:55;19.90;84.05
67054;SHT31;53960;51.826;5.850;2023-09-07T00:51:21;19.85;84.20
67054;SHT31;53960;51.826;5.850;2023-09-07T00:53:46;19.83;84.29
67054;SHT31;53960;51.826;5.850;2023-09-07T00:56:12;19.86;84.11
67054;SHT31;53960;51.826;5.850;2023-09-07T00:58:37;19.78;84.30
67054;SHT31;53960;51.826;5.850;2023-09-07T01:01:03;19.78;84.45
67054;SHT31;53960;51.826;5.850;2023-09-07T01:03:28;19.71;84.54
67054;SHT31;53960;51.826;5.850;2023-09-07T01:08:45;19.69;84.55
67054;SHT31;53960;51.826;5.850;2023-09-07T01:11:18;19.73;84.10
67054;SHT31;53960;51.826;5.850;2023-09-07T01:13:45;19.75;83.99
67054;SHT31;53960;51.826;5.850;2023-09-07T01:16:12;19.63;84.40
67054;SHT31;53960;51.826;5.850;2023-09-07T01:18:39;19.59;84.62
67054;SHT31;53960;51.826;5.850;2023-09-07T01:21:08;19.59;84.32
67054;SHT31;53960;51.826;5.850;2023-09-07T01:23:45;19.58;84.18
67054;SHT31;53960;51.826;5.850;2023-09-07T01:26:11;19.62;83.82
67054;SHT31;53960;51.826;5.850;2023-09-07T01:28:37;19.58;83.76
67054;SHT31;53960;51.826;5.850;2023-09-07T01:31:03;19.59;83.78
67054;SHT31;53960;51.826;5.850;2023-09-07T01:33:30;19.62;83.38
67054;SHT31;53960;51.826;5.850;2023-09-07T01:35:55;19.65;83.28
67054;SHT31;53960;51.826;5.850;2023-09-07T01:38:21;19.73;82.98
67054;SHT31;53960;51.826;5.850;2023-09-07T01:40:46;19.78;82.60
67054;SHT31;53960;51.826;5.850;2023-09-07T01:43:12;19.76;82.56
67054;SHT31;53960;51.826;5.850;2023-09-07T01:45:37;19.78;82.45
67054;SHT31;53960;51.826;5.850;2023-09-07T01:48:05;19.71;82.66
67054;SHT31;53960;51.826;5.850;2023-09-07T01:50:30;19.71;82.57
67054;SHT31;53960;51.826;5.850;2023-09-07T01:52:56;19.72;82.27
67054;SHT31;53960;51.826;5.850;2023-09-07T01:55:21;19.73;82.26
67054;SHT31;53960;51.826;5.850;2023-09-07T01:57:47;19.76;82.06
67054;SHT31;53960;51.826;5.850;2023-09-07T02:00:12;19.79;82.00
67054;SHT31;53960;51.826;5.850;2023-09-07T02:02:38;19.75;82.14
67054;SHT31;53960;51.826;5.850;2023-09-07T02:05:03;19.73;82.12
67054;SHT31;53960;51.826;5.850;2023-09-07T02:07:29;19.76;82.06
67054;SHT31;53960;51.826;5.850;2023-09-07T02:09:54;19.71;82.08
67054;SHT31;53960;51.826;5.850;2023-09-07T02:12:20;19.66;82.24
67054;SHT31;53960;51.826;5.850;2023-09-07T02:14:45;19.72;82.20
67054;SHT31;53960;51.826;5.850;2023-09-07T02:17:11;19.71;82.17
67054;SHT31;53960;51.826;5.850;2023-09-07T02:19:39;19.68;82.31
67054;SHT31;53960;51.826;5.850;2023-09-07T02:22:04;19.68;82.43
67054;SHT31;53960;51.826;5.850;2023-09-07T02:24:29;19.63;82.43
67054;SHT31;53960;51.826;5.850;2023-09-07T02:26:55;19.66;82.27
67054;SHT31;53960;51.826;5.850;2023-09-07T02:29:20;19.73;82.22
67054;SHT31;53960;51.826;5.850;2023-09-07T02:31:45;19.69;82.16
67054;SHT31;53960;51.826;5.850;2023-09-07T02:34:11;19.63;82.31
67054;SHT31;53960;51.826;5.850;2023-09-07T02:36:36;19.61;82.46
67054;SHT31;53960;51.826;5.850;2023-09-07T02:39:01;19.66;82.36
67054;SHT31;53960;51.826;5.850;2023-09-07T02:41:27;19.59;82.41
67054;SHT31;53960;51.826;5.850;2023-09-07T02:43:52;19.54;82.64
67054;SHT31;53960;51.826;5.850;2023-09-07T02:46:17;19.55;82.67
67054;SHT31;53960;51.826;5.850;2023-09-07T02:48:43;19.48;82.69
67054;SHT31;53960;51.826;5.850;2023-09-07T02:51:08;19.47;82.82
67054;SHT31;53960;51.826;5.850;2023-09-07T02:53:33;19.42;82.80
67054;SHT31;53960;51.826;5.850;2023-09-07T02:55:59;19.45;82.75
67054;SHT31;53960;51.826;5.850;2023-09-07T02:58:27;19.49;82.59
67054;SHT31;53960;51.826;5.850;2023-09-07T03:00:52;19.42;82.72
67054;SHT31;53960;51.826;5.850;2023-09-07T03:03:18;19.36;82.75
67054;SHT31;53960;51.826;5.850;2023-09-07T03:05:43;19.27;83.01
67054;SHT31;53960;51.826;5.850;2023-09-07T03:08:09;19.30;83.18
67054;SHT31;53960;51.826;5.850;2023-09-07T03:10:35;19.20;83.37
67054;SHT31;53960;51.826;5.850;2023-09-07T03:13:01;19.11;83.50
67054;SHT31;53960;51.826;5.850;2023-09-07T03:15:26;19.06;83.87
67054;SHT31;53960;51.826;5.850;2023-09-07T03:17:52;19.06;83.98
67054;SHT31;53960;51.826;5.850;2023-09-07T03:20:18;19.01;84.14
67054;SHT31;53960;51.826;5.850;2023-09-07T03:22:44;19.00;84.13
67054;SHT31;53960;51.826;5.850;2023-09-07T03:25:11;18.96;84.33
67054;SHT31;53960;51.826;5.850;2023-09-07T03:27:37;18.89;84.59
67054;SHT31;53960;51.826;5.850;2023-09-07T03:30:05;18.89;84.41
67054;SHT31;53960;51.826;5.850;2023-09-07T03:32:33;18.83;84.53
67054;SHT31;53960;51.826;5.850;2023-09-07T03:35:03;18.79;84.69
67054;SHT31;53960;51.826;5.850;2023-09-07T03:37:35;18.76;84.66
67054;SHT31;53960;51.826;5.850;2023-09-07T03:40:00;18.77;84.75
67054;SHT31;53960;51.826;5.850;2023-09-07T03:42:26;18.69;85.06
67054;SHT31;53960;51.826;5.850;2023-09-07T03:44:51;18.67;84.97
67054;SHT31;53960;51.826;5.850;2023-09-07T03:47:17;18.72;84.85
67054;SHT31;53960;51.826;5.850;2023-09-07T03:49:42;18.63;84.97
67054;SHT31;53960;51.826;5.850;2023-09-07T03:52:09;18.56;85.13
67054;SHT31;53960;51.826;5.850;2023-09-07T03:54:34;18.56;85.15
67054;SHT31;53960;51.826;5.850;2023-09-07T03:57:00;18.53;85.25
67054;SHT31;53960;51.826;5.850;2023-09-07T03:59:27;18.53;85.28
67054;SHT31;53960;51.826;5.850;2023-09-07T04:01:53;18.48;85.38
67054;SHT31;53960;51.826;5.850;2023-09-07T04:04:20;18.51;85.34
67054;SHT31;53960;51.826;5.850;2023-09-07T04:06:46;18.46;85.46
67054;SHT31;53960;51.826;5.850;2023-09-07T04:09:13;18.46;85.49
67054;SHT31;53960;51.826;5.850;2023-09-07T04:11:38;18.39;85.71
67054;SHT31;53960;51.826;5.850;2023-09-07T04:14:03;18.42;85.75
67054;SHT31;53960;51.826;5.850;2023-09-07T04:16:29;18.35;85.70
67054;SHT31;53960;51.826;5.850;2023-09-07T04:18:54;18.48;85.22
67054;SHT31;53960;51.826;5.850;2023-09-07T04:21:19;18.41;85.28
67054;SHT31;53960;51.826;5.850;2023-09-07T04:23:45;18.42;85.20
67054;SHT31;53960;51.826;5.850;2023-09-07T04:26:11;18.32;85.32
67054;SHT31;53960;51.826;5.850;2023-09-07T04:28:38;18.33;85.34
67054;SHT31;53960;51.826;5.850;2023-09-07T04:31:04;18.24;85.36
67054;SHT31;53960;51.826;5.850;2023-09-07T04:33:30;18.33;85.09
67054;SHT31;53960;51.826;5.850;2023-09-07T04:35:56;18.32;85.13
67054;SHT31;53960;51.826;5.850;2023-09-07T04:38:21;18.35;85.02
67054;SHT31;53960;51.826;5.850;2023-09-07T04:40:47;18.35;84.89
67054;SHT31;53960;51.826;5.850;2023-09-07T04:43:12;18.36;84.84
67054;SHT31;53960;51.826;5.850;2023-09-07T04:45:45;18.39;84.62
67054;SHT31;53960;51.826;5.850;2023-09-07T04:48:11;18.33;84.84
67054;SHT31;53960;51.826;5.850;2023-09-07T04:50:37;18.22;84.99
67054;SHT31;53960;51.826;5.850;2023-09-07T04:53:03;18.22;84.90
67054;SHT31;53960;51.826;5.850;2023-09-07T04:55:28;18.33;84.81
67054;SHT31;53960;51.826;5.850;2023-09-07T04:57:54;18.31;84.88
67054;SHT31;53960;51.826;5.850;2023-09-07T05:00:19;18.32;84.83
67054;SHT31;53960;51.826;5.850;2023-09-07T05:02:44;18.21;84.99
67054;SHT31;53960;51.826;5.850;2023-09-07T05:05:11;18.16;85.16
67054;SHT31;53960;51.826;5.850;2023-09-07T05:07:36;18.22;85.06
67054;SHT31;53960;51.826;5.850;2023-09-07T05:10:02;18.19;85.05
67054;SHT31;53960;51.826;5.850;2023-09-07T05:12:28;18.11;85.43
67054;SHT31;53960;51.826;5.850;2023-09-07T05:14:53;18.08;85.44
67054;SHT31;53960;51.826;5.850;2023-09-07T05:17:18;18.08;85.51
67054;SHT31;53960;51.826;5.850;2023-09-07T05:19:44;18.09;85.54
67054;SHT31;53960;51.826;5.850;2023-09-07T05:22:09;18.06;85.56
67054;SHT31;53960;51.826;5.850;2023-09-07T05:24:37;18.08;85.62
67054;SHT31;53960;51.826;5.850;2023-09-07T05:27:03;18.14;85.79
67054;SHT31;53960;51.826;5.850;2023-09-07T05:29:28;18.12;85.73
67054;SHT31;53960;51.826;5.850;2023-09-07T05:31:54;18.06;85.94
67054;SHT31;53960;51.826;5.850;2023-09-07T05:34:19;18.11;85.89
67054;SHT31;53960;51.826;5.850;2023-09-07T05:36:44;18.04;86.19
67054;SHT31;53960;51.826;5.850;2023-09-07T05:39:10;18.12;85.85
67054;SHT31;53960;51.826;5.850;2023-09-07T05:41:35;18.05;85.92
67054;SHT31;53960;51.826;5.850;2023-09-07T05:44:00;18.05;86.11
67054;SHT31;53960;51.826;5.850;2023-09-07T05:46:26;18.11;86.11
67054;SHT31;53960;51.826;5.850;2023-09-07T05:48:51;18.08;86.21
67054;SHT31;53960;51.826;5.850;2023-09-07T05:51:16;18.18;85.96
67054;SHT31;53960;51.826;5.850;2023-09-07T05:53:42;18.21;85.92
67054;SHT31;53960;51.826;5.850;2023-09-07T05:56:07;18.21;86.07
67054;SHT31;53960;51.826;5.850;2023-09-07T05:58:33;18.21;86.10
67054;SHT31;53960;51.826;5.850;2023-09-07T06:00:59;18.21;86.14
67054;SHT31;53960;51.826;5.850;2023-09-07T06:03:24;18.28;86.00
67054;SHT31;53960;51.826;5.850;2023-09-07T06:05:50;18.35;85.87
67054;SHT31;53960;51.826;5.850;2023-09-07T06:08:15;18.41;86.01
67054;SHT31;53960;51.826;5.850;2023-09-07T06:10:41;18.52;85.82
67054;SHT31;53960;51.826;5.850;2023-09-07T06:13:06;18.60;85.74
67054;SHT31;53960;51.826;5.850;2023-09-07T06:15:31;18.64;85.66
67054;SHT31;53960;51.826;5.850;2023-09-07T06:17:57;18.73;85.60
67054;SHT31;53960;51.826;5.850;2023-09-07T06:20:22;18.77;85.36
67054;SHT31;53960;51.826;5.850;2023-09-07T06:22:48;18.87;85.10
67054;SHT31;53960;51.826;5.850;2023-09-07T06:25:14;18.99;84.69
67054;SHT31;53960;51.826;5.850;2023-09-07T06:27:39;18.99;84.93
67054;SHT31;53960;51.826;5.850;2023-09-07T06:30:06;19.07;84.60
67054;SHT31;53960;51.826;5.850;2023-09-07T06:32:31;19.15;84.25
67054;SHT31;53960;51.826;5.850;2023-09-07T06:34:57;19.21;83.89
67054;SHT31;53960;51.826;5.850;2023-09-07T06:37:23;19.30;84.08
67054;SHT31;53960;51.826;5.850;2023-09-07T06:39:50;19.30;84.06
67054;SHT31;53960;51.826;5.850;2023-09-07T06:42:15;19.30;84.20
67054;SHT31;53960;51.826;5.850;2023-09-07T06:44:41;19.30;83.99
67054;SHT31;53960;51.826;5.850;2023-09-07T06:47:06;19.36;83.73
67054;SHT31;53960;51.826;5.850;2023-09-07T06:49:32;19.41;83.81
67054;SHT31;53960;51.826;5.850;2023-09-07T06:51:57;19.48;83.42
67054;SHT31;53960;51.826;5.850;2023-09-07T06:54:23;19.52;83.12
67054;SHT31;53960;51.826;5.850;2023-09-07T06:56:48;19.59;83.12
67054;SHT31;53960;51.826;5.850;2023-09-07T06:59:14;19.63;83.15
67054;SHT31;53960;51.826;5.850;2023-09-07T07:01:39;19.75;81.78
67054;SHT31;53960;51.826;5.850;2023-09-07T07:04:05;19.75;82.40
67054;SHT31;53960;51.826;5.850;2023-09-07T07:06:31;19.76;81.92
67054;SHT31;53960;51.826;5.850;2023-09-07T07:08:56;19.82;81.15
67054;SHT31;53960;51.826;5.850;2023-09-07T07:11:22;19.90;81.42
67054;SHT31;53960;51.826;5.850;2023-09-07T07:13:47;19.96;81.23
67054;SHT31;53960;51.826;5.850;2023-09-07T07:16:12;20.06;80.79
67054;SHT31;53960;51.826;5.850;2023-09-07T07:18:38;20.13;80.96
67054;SHT31;53960;51.826;5.850;2023-09-07T07:21:05;20.21;80.96
67054;SHT31;53960;51.826;5.850;2023-09-07T07:23:30;20.26;80.30
67054;SHT31;53960;51.826;5.850;2023-09-07T07:25:56;20.33;80.41
67054;SHT31;53960;51.826;5.850;2023-09-07T07:28:21;20.36;80.28
67054;SHT31;53960;51.826;5.850;2023-09-07T07:30:46;20.44;79.66
67054;SHT31;53960;51.826;5.850;2023-09-07T07:33:13;20.58;80.14
67054;SHT31;53960;51.826;5.850;2023-09-07T07:35:38;20.74;78.60
67054;SHT31;53960;51.826;5.850;2023-09-07T07:38:04;20.79;78.81
67054;SHT31;53960;51.826;5.850;2023-09-07T07:40:30;20.84;78.82
67054;SHT31;53960;51.826;5.850;2023-09-07T07:42:55;20.85;78.90
67054;SHT31;53960;51.826;5.850;2023-09-07T07:45:21;20.95;78.28
67054;SHT31;53960;51.826;5.850;2023-09-07T07:47:48;21.03;78.04
67054;SHT31;53960;51.826;5.850;2023-09-07T07:50:14;21.09;78.93
67054;SHT31;53960;51.826;5.850;2023-09-07T07:52:39;21.09;78.80
67054;SHT31;53960;51.826;5.850;2023-09-07T07:55:06;21.15;78.15
67054;SHT31;53960;51.826;5.850;2023-09-07T07:57:31;21.23;78.21
67054;SHT31;53960;51.826;5.850;2023-09-07T07:59:57;21.33;78.16
67054;SHT31;53960;51.826;5.850;2023-09-07T08:02:22;21.43;77.85
67054;SHT31;53960;51.826;5.850;2023-09-07T08:04:48;21.54;77.24
67054;SHT31;53960;51.826;5.850;2023-09-07T08:07:13;21.53;77.74
67054;SHT31;53960;51.826;5.850;2023-09-07T08:09:39;21.64;76.62
67054;SHT31;53960;51.826;5.850;2023-09-07T08:12:05;21.80;76.41
67054;SHT31;53960;51.826;5.850;2023-09-07T08:14:30;21.87;75.96
67054;SHT31;53960;51.826;5.850;2023-09-07T08:16:57;22.01;75.88
67054;SHT31;53960;51.826;5.850;2023-09-07T08:19:22;22.18;74.75
67054;SHT31;53960;51.826;5.850;2023-09-07T08:21:48;22.24;74.76
67054;SHT31;53960;51.826;5.850;2023-09-07T08:24:13;22.34;74.41
67054;SHT31;53960;51.826;5.850;2023-09-07T08:26:39;22.46;74.35
67054;SHT31;53960;51.826;5.850;2023-09-07T08:29:05;22.55;74.04
67054;SHT31;53960;51.826;5.850;2023-09-07T08:31:32;22.65;73.39
67054;SHT31;53960;51.826;5.850;2023-09-07T08:34:03;22.79;73.23
67054;SHT31;53960;51.826;5.850;2023-09-07T08:36:29;22.97;72.34
67054;SHT31;53960;51.826;5.850;2023-09-07T08:38:57;23.04;72.67
67054;SHT31;53960;51.826;5.850;2023-09-07T08:41:25;23.11;73.26
67054;SHT31;53960;51.826;5.850;2023-09-07T08:43:53;23.14;73.30
67054;SHT31;53960;51.826;5.850;2023-09-07T08:46:19;23.17;72.44
67054;SHT31;53960;51.826;5.850;2023-09-07T08:48:48;23.18;72.43
67054;SHT31;53960;51.826;5.850;2023-09-07T08:51:18;23.37;72.41
67054;SHT31;53960;51.826;5.850;2023-09-07T08:53:44;23.45;72.40
67054;SHT31;53960;51.826;5.850;2023-09-07T08:56:12;23.57;71.96
67054;SHT31;53960;51.826;5.850;2023-09-07T08:58:38;23.68;71.78
67054;SHT31;53960;51.826;5.850;2023-09-07T09:01:05;23.86;71.88
67054;SHT31;53960;51.826;5.850;2023-09-07T09:03:31;23.95;71.82
67054;SHT31;53960;51.826;5.850;2023-09-07T09:05:56;24.06;71.60
67054;SHT31;53960;51.826;5.850;2023-09-07T09:08:22;24.10;71.77
67054;SHT31;53960;51.826;5.850;2023-09-07T09:11:01;24.16;72.07
67054;SHT31;53960;51.826;5.850;2023-09-07T09:13:32;24.16;72.69
67054;SHT31;53960;51.826;5.850;2023-09-07T09:16:01;24.19;72.21
67054;SHT31;53960;51.826;5.850;2023-09-07T09:18:27;24.16;72.64
67054;SHT31;53960;51.826;5.850;2023-09-07T09:20:54;24.26;72.55
67054;SHT31;53960;51.826;5.850;2023-09-07T09:23:20;24.36;73.22
67054;SHT31;53960;51.826;5.850;2023-09-07T09:25:47;24.40;72.19
67054;SHT31;53960;51.826;5.850;2023-09-07T09:28:13;24.51;72.57
67054;SHT31;53960;51.826;5.850;2023-09-07T09:30:38;24.59;71.40
67054;SHT31;53960;51.826;5.850;2023-09-07T09:33:05;24.71;70.62
67054;SHT31;53960;51.826;5.850;2023-09-07T09:35:31;24.90;70.84
67054;SHT31;53960;51.826;5.850;2023-09-07T09:38:01;25.02;69.49
67054;SHT31;53960;51.826;5.850;2023-09-07T09:40:32;25.04;69.16
67054;SHT31;53960;51.826;5.850;2023-09-07T09:43:01;25.16;68.69
67054;SHT31;53960;51.826;5.850;2023-09-07T09:45:27;25.18;69.14
67054;SHT31;53960;51.826;5.850;2023-09-07T09:47:54;25.35;68.17
67054;SHT31;53960;51.826;5.850;2023-09-07T09:50:22;25.39;67.96
67054;SHT31;53960;51.826;5.850;2023-09-07T09:52:48;25.45;67.25
67054;SHT31;53960;51.826;5.850;2023-09-07T09:55:14;25.50;66.58
67054;SHT31;53960;51.826;5.850;2023-09-07T09:57:41;25.58;66.78
67054;SHT31;53960;51.826;5.850;2023-09-07T10:00:07;25.66;66.59
67054;SHT31;53960;51.826;5.850;2023-09-07T10:02:44;25.67;67.77
67054;SHT31;53960;51.826;5.850;2023-09-07T10:05:11;25.67;67.28
67054;SHT31;53960;51.826;5.850;2023-09-07T10:07:44;25.71;68.10
67054;SHT31;53960;51.826;5.850;2023-09-07T10:10:14;25.80;67.11
67054;SHT31;53960;51.826;5.850;2023-09-07T10:13:06;25.91;66.84
67054;SHT31;53960;51.826;5.850;2023-09-07T10:15:32;26.00;67.21
67054;SHT31;53960;51.826;5.850;2023-09-07T10:20:45;26.22;66.99
67054;SHT31;53960;51.826;5.850;2023-09-07T10:23:11;26.24;65.14
67054;SHT31;53960;51.826;5.850;2023-09-07T10:25:37;26.41;65.64
67054;SHT31;53960;51.826;5.850;2023-09-07T10:28:02;26.47;63.15
67054;SHT31;53960;51.826;5.850;2023-09-07T10:30:29;26.53;63.52
67054;SHT31;53960;51.826;5.850;2023-09-07T10:32:57;26.55;63.25
67054;SHT31;53960;51.826;5.850;2023-09-07T10:35:23;26.59;64.17
67054;SHT31;53960;51.826;5.850;2023-09-07T10:37:51;26.62;63.95
67054;SHT31;53960;51.826;5.850;2023-09-07T10:40:21;26.72;64.52
67054;SHT31;53960;51.826;5.850;2023-09-07T10:42:47;26.83;63.00
67054;SHT31;53960;51.826;5.850;2023-09-07T10:45:14;26.82;63.87
67054;SHT31;53960;51.826;5.850;2023-09-07T10:47:42;26.92;65.02
67054;SHT31;53960;51.826;5.850;2023-09-07T10:50:10;26.96;63.67
67054;SHT31;53960;51.826;5.850;2023-09-07T10:52:36;27.03;62.88
67054;SHT31;53960;51.826;5.850;2023-09-07T10:55:02;27.07;63.63
67054;SHT31;53960;51.826;5.850;2023-09-07T10:57:27;27.11;63.42
67054;SHT31;53960;51.826;5.850;2023-09-07T10:59:52;27.14;62.77
67054;SHT31;53960;51.826;5.850;2023-09-07T11:02:20;27.22;62.70
67054;SHT31;53960;51.826;5.850;2023-09-07T11:04:46;27.31;61.99
67054;SHT31;53960;51.826;5.850;2023-09-07T11:07:12;27.38;62.52
67054;SHT31;53960;51.826;5.850;2023-09-07T11:09:41;27.44;62.27
67054;SHT31;53960;51.826;5.850;2023-09-07T11:12:07;27.51;61.39
67054;SHT31;53960;51.826;5.850;2023-09-07T11:14:34;27.55;61.44
67054;SHT31;53960;51.826;5.850;2023-09-07T11:17:01;27.59;62.32
67054;SHT31;53960;51.826;5.850;2023-09-07T11:19:32;27.75;61.66
67054;SHT31;53960;51.826;5.850;2023-09-07T11:21:57;27.74;61.38
67054;SHT31;53960;51.826;5.850;2023-09-07T11:24:23;27.80;61.50
67054;SHT31;53960;51.826;5.850;2023-09-07T11:26:49;27.86;61.74
67054;SHT31;53960;51.826;5.850;2023-09-07T11:29:17;27.91;60.52
67054;SHT31;53960;51.826;5.850;2023-09-07T11:31:44;27.92;60.76
67054;SHT31;53960;51.826;5.850;2023-09-07T11:34:14;27.91;61.03
67054;SHT31;53960;51.826;5.850;2023-09-07T11:36:40;27.96;62.12
67054;SHT31;53960;51.826;5.850;2023-09-07T11:39:06;27.99;61.63
67054;SHT31;53960;51.826;5.850;2023-09-07T11:41:39;27.98;60.29
67054;SHT31;53960;51.826;5.850;2023-09-07T11:44:04;27.98;61.36
67054;SHT31;53960;51.826;5.850;2023-09-07T11:46:29;28.04;61.30
67054;SHT31;53960;51.826;5.850;2023-09-07T11:48:55;28.13;60.99
67054;SHT31;53960;51.826;5.850;2023-09-07T11:51:21;28.13;61.92
67054;SHT31;53960;51.826;5.850;2023-09-07T11:53:46;28.17;60.78
67054;SHT31;53960;51.826;5.850;2023-09-07T11:56:12;28.12;60.78
67054;SHT31;53960;51.826;5.850;2023-09-07T11:58:37;28.19;60.86
67054;SHT31;53960;51.826;5.850;2023-09-07T12:01:02;28.29;62.98
67054;SHT31;53960;51.826;5.850;2023-09-07T12:03:29;28.35;62.92
67054;SHT31;53960;51.826;5.850;2023-09-07T12:05:55;28.42;60.89
67054;SHT31;53960;51.826;5.850;2023-09-07T12:08:20;28.46;61.34
67054;SHT31;53960;51.826;5.850;2023-09-07T12:10:46;28.42;60.13
67054;SHT31;53960;51.826;5.850;2023-09-07T12:13:12;28.46;60.40
67054;SHT31;53960;51.826;5.850;2023-09-07T12:15:37;28.50;61.21
67054;SHT31;53960;51.826;5.850;2023-09-07T12:18:03;28.50;60.60
67054;SHT31;53960;51.826;5.850;2023-09-07T12:20:28;28.54;60.75
67054;SHT31;53960;51.826;5.850;2023-09-07T12:22:54;28.57;60.45
67054;SHT31;53960;51.826;5.850;2023-09-07T12:25:19;28.53;58.38
67054;SHT31;53960;51.826;5.850;2023-09-07T12:27:45;28.49;57.76
67054;SHT31;53960;51.826;5.850;2023-09-07T12:30:12;28.50;58.57
67054;SHT31;53960;51.826;5.850;2023-09-07T12:32:39;28.49;59.97
67054;SHT31;53960;51.826;5.850;2023-09-07T12:35:05;28.46;58.77
67054;SHT31;53960;51.826;5.850;2023-09-07T12:37:35;28.54;58.53
67054;SHT31;53960;51.826;5.850;2023-09-07T12:40:01;28.59;58.55
67054;SHT31;53960;51.826;5.850;2023-09-07T12:42:26;28.59;59.11
67054;SHT31;53960;51.826;5.850;2023-09-07T12:44:51;28.50;58.40
67054;SHT31;53960;51.826;5.850;2023-09-07T12:47:17;28.56;58.98
67054;SHT31;53960;51.826;5.850;2023-09-07T12:49:42;28.54;59.57
67054;SHT31;53960;51.826;5.850;2023-09-07T12:52:07;28.57;59.02
67054;SHT31;53960;51.826;5.850;2023-09-07T12:54:36;28.57;59.80
67054;SHT31;53960;51.826;5.850;2023-09-07T12:57:02;28.64;60.36
67054;SHT31;53960;51.826;5.850;2023-09-07T12:59:28;28.63;60.34
67054;SHT31;53960;51.826;5.850;2023-09-07T13:01:54;28.56;60.11
67054;SHT31;53960;51.826;5.850;2023-09-07T13:04:21;28.60;59.71
67054;SHT31;53960;51.826;5.850;2023-09-07T13:06:46;28.60;60.13
67054;SHT31;53960;51.826;5.850;2023-09-07T13:09:12;28.64;59.64
67054;SHT31;53960;51.826;5.850;2023-09-07T13:11:37;28.70;60.82
67054;SHT31;53960;51.826;5.850;2023-09-07T13:14:04;28.71;60.23
67054;SHT31;53960;51.826;5.850;2023-09-07T13:16:29;28.77;60.33
67054;SHT31;53960;51.826;5.850;2023-09-07T13:18:57;28.78;59.79
67054;SHT31;53960;51.826;5.850;2023-09-07T13:21:23;28.71;59.29
67054;SHT31;53960;51.826;5.850;2023-09-07T13:23:48;28.77;60.45
67054;SHT31;53960;51.826;5.850;2023-09-07T13:26:14;28.71;59.84
67054;SHT31;53960;51.826;5.850;2023-09-07T13:28:41;28.74;58.52
67054;SHT31;53960;51.826;5.850;2023-09-07T13:31:06;28.80;61.28
67054;SHT31;53960;51.826;5.850;2023-09-07T13:33:32;28.80;60.25
67054;SHT31;53960;51.826;5.850;2023-09-07T13:35:57;28.83;59.92
67054;SHT31;53960;51.826;5.850;2023-09-07T13:38:23;28.87;59.86
67054;SHT31;53960;51.826;5.850;2023-09-07T13:40:48;28.90;59.64
67054;SHT31;53960;51.826;5.850;2023-09-07T13:43:14;28.98;60.52
67054;SHT31;53960;51.826;5.850;2023-09-07T13:45:39;28.97;59.53
67054;SHT31;53960;51.826;5.850;2023-09-07T13:48:05;28.95;59.97
67054;SHT31;53960;51.826;5.850;2023-09-07T13:50:30;29.01;60.44
67054;SHT31;53960;51.826;5.850;2023-09-07T13:52:56;28.97;59.41
67054;SHT31;53960;51.826;5.850;2023-09-07T13:55:22;28.98;58.87
67054;SHT31;53960;51.826;5.850;2023-09-07T13:57:47;28.95;59.63
67054;SHT31;53960;51.826;5.850;2023-09-07T14:00:13;28.93;59.77
67054;SHT31;53960;51.826;5.850;2023-09-07T14:02:38;28.98;59.70
67054;SHT31;53960;51.826;5.850;2023-09-07T14:05:04;29.02;59.28
67054;SHT31;53960;51.826;5.850;2023-09-07T14:07:30;29.00;59.07
67054;SHT31;53960;51.826;5.850;2023-09-07T14:09:55;28.97;59.94
67054;SHT31;53960;51.826;5.850;2023-09-07T14:12:21;28.98;60.56
67054;SHT31;53960;51.826;5.850;2023-09-07T14:14:47;29.01;60.63
67054;SHT31;53960;51.826;5.850;2023-09-07T14:17:12;29.04;60.34
67054;SHT31;53960;51.826;5.850;2023-09-07T14:19:38;29.02;59.87
67054;SHT31;53960;51.826;5.850;2023-09-07T14:22:03;29.07;60.18
67054;SHT31;53960;51.826;5.850;2023-09-07T14:24:29;29.12;59.71
67054;SHT31;53960;51.826;5.850;2023-09-07T14:26:54;29.16;59.36
67054;SHT31;53960;51.826;5.850;2023-09-07T14:29:20;29.15;59.57
67054;SHT31;53960;51.826;5.850;2023-09-07T14:31:45;29.18;59.62
67054;SHT31;53960;51.826;5.850;2023-09-07T14:34:11;29.10;59.57
67054;SHT31;53960;51.826;5.850;2023-09-07T14:36:37;29.12;59.74
67054;SHT31;53960;51.826;5.850;2023-09-07T14:39:04;29.08;59.05
67054;SHT31;53960;51.826;5.850;2023-09-07T14:41:29;29.05;58.88
67054;SHT31;53960;51.826;5.850;2023-09-07T14:43:55;29.05;59.24
67054;SHT31;53960;51.826;5.850;2023-09-07T14:46:21;29.10;59.13
67054;SHT31;53960;51.826;5.850;2023-09-07T14:48:48;29.11;59.43
67054;SHT31;53960;51.826;5.850;2023-09-07T14:51:14;29.10;59.75
67054;SHT31;53960;51.826;5.850;2023-09-07T14:53:40;29.10;58.48
67054;SHT31;53960;51.826;5.850;2023-09-07T14:56:05;29.10;58.56
67054;SHT31;53960;51.826;5.850;2023-09-07T14:58:30;29.12;59.42
67054;SHT31;53960;51.826;5.850;2023-09-07T15:00:56;29.19;59.73
67054;SHT31;53960;51.826;5.850;2023-09-07T15:03:23;29.15;58.94
67054;SHT31;53960;51.826;5.850;2023-09-07T15:05:48;29.15;58.56
67054;SHT31;53960;51.826;5.850;2023-09-07T15:08:14;29.15;58.92
67054;SHT31;53960;51.826;5.850;2023-09-07T15:10:39;29.14;59.58
67054;SHT31;53960;51.826;5.850;2023-09-07T15:13:06;29.16;59.10
67054;SHT31;53960;51.826;5.850;2023-09-07T15:15:33;29.19;60.04
67054;SHT31;53960;51.826;5.850;2023-09-07T15:18:02;29.16;59.98
67054;SHT31;53960;51.826;5.850;2023-09-07T15:20:29;29.14;60.08
67054;SHT31;53960;51.826;5.850;2023-09-07T15:22:54;29.11;60.98
67054;SHT31;53960;51.826;5.850;2023-09-07T15:25:20;29.07;60.07
67054;SHT31;53960;51.826;5.850;2023-09-07T15:27:46;29.07;60.74